Brussels, Wisconsin
Current Conditions -  °F | °C
As of 7:15 AM on Thursday 23 Oct 2014 (Local Time) from KSUE Reporting Station
Clear Clear  
Wind Chill: 36°   Ceiling: Unl
Heat Index: 41°   Visibility: 10mi
Dew Point: 37°   Wind: 8mph
Humidity: 87%   Direction: 180°S
Pressure: 30.18"   Gusts: NA
Location:  44.74°N, 87.62°W
Report Text: KSUE 231215Z AUTO 18007KT 10SM CLR 05/03 A3018 RMK AO1
Loading
Personal Weather Stations






























Interactive Weather Map
Tropical Storm Tracking
New forecast layout! Learn more

10-Day Weather Forecast

Advertisements
Track Severe Weather on mobile